Cape Hatteras Natl Seashore, North Carolina
Current Conditions -  °F | °C
As of 11:51 PM on Thursday 30 Oct 2014 (Local Time) from KHSE Reporting Station
Clear Clear  
Wind Chill: 16°   Ceiling: Unl
Heat Index: 16°   Visibility: 10mi
Dew Point: 10°   Wind: 10mph
Humidity: 69%   Direction: 40°NE
Pressure: 29.95"   Gusts: 18mph
Location:  35.22°N, 75.68°W
Report Text: KHSE 310351Z AUTO 04009G16KT 10SM CLR 16/10 A2995 RMK AO2 SLP140 T01560100 TSNO
Loading
Personal Weather Stations






























Interactive Weather Map
Tropical Storm Tracking
New forecast layout! Learn more

10-Day Weather Forecast

Advertisements
Track Severe Weather on mobile